createdAt,value
2022-10-18T00:00:11.914Z,101086.23
2022-10-18T00:02:40.661Z,101082.17
2022-10-18T00:05:11.014Z,101078.67
2022-10-18T00:07:40.096Z,101076.63
2022-10-18T00:10:10.639Z,101077.51
2022-10-18T00:12:40.170Z,101078.43
2022-10-18T00:15:12.074Z,101079.36
2022-10-18T00:17:40.751Z,101075.23
2022-10-18T00:20:11.724Z,101077.18
2022-10-18T00:22:41.922Z,101074.63
2022-10-18T00:25:12.769Z,101073.36
2022-10-18T00:27:41.619Z,101070.51
2022-10-18T00:30:11.577Z,101065.85
2022-10-18T00:32:41.807Z,101067.51
2022-10-18T00:35:11.013Z,101065.59
2022-10-18T00:37:39.687Z,101059.52
2022-10-18T00:40:10.503Z,101060.88
2022-10-18T00:42:39.642Z,101061.70
2022-10-18T00:45:21.188Z,101056.40
2022-10-18T00:47:55.034Z,101051.42
2022-10-18T00:50:26.049Z,101050.57
2022-10-18T00:52:58.312Z,101051.63
2022-10-18T00:55:27.937Z,101043.80
2022-10-18T00:57:57.479Z,101044.08
2022-10-18T01:00:26.205Z,101043.14
2022-10-18T01:02:54.804Z,101034.13
2022-10-18T01:05:23.900Z,101040.09
2022-10-18T01:08:06.863Z,101034.64
2022-10-18T01:10:43.000Z,101037.22
2022-10-18T01:13:26.018Z,101036.69
2022-10-18T01:16:00.545Z,101038.44
2022-10-18T01:18:37.717Z,101034.63
2022-10-18T01:21:18.342Z,101033.92
2022-10-18T01:24:21.534Z,101031.84
2022-10-18T01:27:07.308Z,101036.68
2022-10-18T01:29:47.684Z,101035.67
2022-10-18T01:32:19.958Z,101035.98
2022-10-18T01:34:52.474Z,101035.67
2022-10-18T01:37:23.184Z,101032.38
2022-10-18T01:39:55.222Z,101031.73
2022-10-18T01:42:25.000Z,101029.50
2022-10-18T01:44:54.554Z,101032.47
2022-10-18T01:47:24.078Z,101025.78
2022-10-18T01:49:58.713Z,101025.88
2022-10-18T01:52:26.242Z,101027.02
2022-10-18T01:54:57.400Z,101023.38
2022-10-18T01:57:35.867Z,101020.34
2022-10-18T02:00:14.130Z,101018.55
2022-10-18T02:02:47.741Z,101019.27
2022-10-18T02:05:31.517Z,101015.54
2022-10-18T02:08:22.052Z,101016.83
2022-10-18T02:10:54.782Z,101013.69
2022-10-18T02:13:26.746Z,101015.38
2022-10-18T02:15:59.873Z,101012.28
2022-10-18T02:18:33.971Z,101017.77
2022-10-18T02:21:03.745Z,101016.73
2022-10-18T02:23:34.096Z,101016.98
2022-10-18T02:26:02.947Z,101015.33
2022-10-18T02:28:32.139Z,101016.83
2022-10-18T02:31:07.101Z,101014.73
2022-10-18T02:33:45.524Z,101015.42
2022-10-18T02:36:22.522Z,101021.97
2022-10-18T02:38:54.507Z,101022.65
2022-10-18T02:41:28.020Z,101022.02
2022-10-18T02:43:56.592Z,101015.45
2022-10-18T02:48:59.203Z,101019.08
2022-10-18T02:51:27.842Z,101025.86
2022-10-18T02:53:56.498Z,101025.39
2022-10-18T02:56:25.074Z,101027.06
2022-10-18T02:58:53.594Z,101028.14
2022-10-18T03:01:22.339Z,101026.35
2022-10-18T03:03:51.425Z,101027.70
2022-10-18T03:06:20.440Z,101021.95
2022-10-18T03:08:49.705Z,101020.31
2022-10-18T03:11:18.426Z,101015.27
2022-10-18T03:13:47.177Z,101013.64
2022-10-18T03:16:15.871Z,101016.12
2022-10-18T03:18:44.496Z,101018.86
2022-10-18T03:21:13.911Z,101014.10
2022-10-18T03:23:43.445Z,101014.86
2022-10-18T03:26:16.626Z,101013.65
2022-10-18T03:28:48.632Z,101025.38
2022-10-18T03:31:17.409Z,101022.73
2022-10-18T03:33:46.340Z,101022.38
2022-10-18T03:36:15.192Z,101022.40
2022-10-18T03:38:44.545Z,101021.64
2022-10-18T03:41:13.727Z,101016.77
2022-10-18T03:43:42.296Z,101018.73
2022-10-18T03:46:10.984Z,101016.66
2022-10-18T03:48:39.675Z,101016.87
2022-10-18T03:51:08.299Z,101019.83
2022-10-18T03:53:37.364Z,101021.70
2022-10-18T03:56:06.764Z,101024.04
2022-10-18T03:58:35.573Z,101018.98
2022-10-18T04:01:04.632Z,101024.59
2022-10-18T04:03:33.351Z,101019.21
2022-10-18T04:06:03.177Z,101016.38
2022-10-18T04:08:32.025Z,101014.02
2022-10-18T04:11:04.546Z,101018.67
2022-10-18T04:13:33.932Z,101024.41
2022-10-18T04:16:02.625Z,101021.98
2022-10-18T04:18:31.570Z,101012.21
2022-10-18T04:21:00.232Z,101013.06
2022-10-18T04:23:28.835Z,101023.07
2022-10-18T04:25:57.995Z,101025.39
2022-10-18T04:28:26.639Z,101023.17
2022-10-18T04:30:55.257Z,101020.33
2022-10-18T04:33:24.660Z,101018.02
2022-10-18T04:35:54.241Z,101025.73
2022-10-18T04:38:22.868Z,101022.83
2022-10-18T04:40:52.202Z,101020.79
2022-10-18T04:43:21.233Z,101019.92
2022-10-18T04:45:50.728Z,101020.39
2022-10-18T04:48:19.917Z,101021.84
2022-10-18T04:50:50.412Z,101019.08
2022-10-18T04:53:19.603Z,101015.52
2022-10-18T04:55:49.709Z,101014.02
2022-10-18T04:58:18.752Z,101010.90
2022-10-18T05:00:47.989Z,101009.60
2022-10-18T05:03:16.970Z,101015.97
2022-10-18T05:06:02.952Z,101013.89
2022-10-18T05:08:34.190Z,101010.05
2022-10-18T05:11:03.367Z,101007.27
2022-10-18T05:13:33.121Z,101008.11
2022-10-18T05:16:02.166Z,101015.91
2022-10-18T05:18:30.871Z,101018.52
2022-10-18T05:21:00.584Z,101024.23
2022-10-18T05:23:29.950Z,101026.27
2022-10-18T05:26:03.307Z,101019.29
2022-10-18T05:28:40.843Z,101023.69
2022-10-18T05:31:11.999Z,101030.45
2022-10-18T05:33:40.815Z,101028.39
2022-10-18T05:36:10.485Z,101031.68
2022-10-18T05:38:42.474Z,101032.21
2022-10-18T05:41:12.291Z,101026.27
2022-10-18T05:43:40.923Z,101027.56
2022-10-18T05:46:15.425Z,101027.33
2022-10-18T05:48:49.958Z,101032.39
2022-10-18T05:51:19.535Z,101036.05
2022-10-18T05:53:48.163Z,101038.50
2022-10-18T05:56:17.036Z,101035.09
2022-10-18T05:58:49.796Z,101038.27
2022-10-18T06:01:19.183Z,101042.31
2022-10-18T06:03:49.117Z,101042.79
2022-10-18T06:06:18.055Z,101037.98
2022-10-18T06:08:50.571Z,101042.64
2022-10-18T06:11:22.005Z,101043.70
2022-10-18T06:13:52.288Z,101045.02
2022-10-18T06:16:22.322Z,101043.00
2022-10-18T06:18:52.795Z,101052.52
2022-10-18T06:21:22.903Z,101052.27
2022-10-18T06:23:52.370Z,101058.27
2022-10-18T06:26:22.154Z,101062.09
2022-10-18T06:28:51.286Z,101065.96
2022-10-18T06:31:20.846Z,101066.55
2022-10-18T06:33:50.237Z,101066.35
2022-10-18T06:36:21.950Z,101065.44
2022-10-18T06:38:51.051Z,101062.32
2022-10-18T06:41:20.086Z,101065.77
2022-10-18T06:43:50.636Z,101061.08
2022-10-18T06:46:19.891Z,101063.36
2022-10-18T06:48:49.459Z,101062.77
2022-10-18T06:51:18.374Z,101062.48
2022-10-18T06:53:59.208Z,101060.09
2022-10-18T06:56:36.433Z,101056.86
2022-10-18T06:59:05.507Z,101055.14
2022-10-18T07:01:34.397Z,101048.73
2022-10-18T07:04:05.736Z,101041.61
2022-10-18T07:06:34.498Z,101043.39
2022-10-18T07:09:03.485Z,101045.98
2022-10-18T07:11:32.201Z,101044.58
2022-10-18T07:14:03.703Z,101047.68
2022-10-18T07:16:33.920Z,101044.96
2022-10-18T07:19:03.211Z,101045.40
2022-10-18T07:21:31.921Z,101043.63
2022-10-18T07:24:01.408Z,101046.60
2022-10-18T07:26:32.025Z,101049.42
2022-10-18T07:29:04.585Z,101051.21
2022-10-18T07:31:33.600Z,101051.13
2022-10-18T07:34:03.633Z,101046.66
2022-10-18T07:36:32.531Z,101039.52
2022-10-18T07:39:04.899Z,101040.54
2022-10-18T07:41:34.999Z,101032.14
2022-10-18T07:44:05.742Z,101029.23
2022-10-18T07:46:34.427Z,101026.15
2022-10-18T07:49:04.220Z,101025.32
2022-10-18T07:51:35.784Z,101027.49
2022-10-18T07:54:05.274Z,101037.48
2022-10-18T07:56:33.883Z,101036.87
2022-10-18T07:59:03.465Z,101036.19
2022-10-18T08:01:32.470Z,101027.05
2022-10-18T08:04:06.152Z,101022.73
2022-10-18T08:06:36.178Z,101021.86
2022-10-18T08:09:05.281Z,101014.34
2022-10-18T08:11:34.872Z,101005.48
2022-10-18T08:14:04.099Z,101007.33
2022-10-18T08:16:33.786Z,101010.67
2022-10-18T08:19:02.810Z,101010.72
2022-10-18T08:21:33.521Z,101017.79
2022-10-18T08:24:02.176Z,101018.52
2022-10-18T08:26:31.424Z,101015.70
2022-10-18T08:29:20.969Z,101010.02
2022-10-18T08:31:52.227Z,101000.77
2022-10-18T08:34:21.040Z,100998.63
2022-10-18T08:36:49.699Z,100994.98
2022-10-18T08:39:19.103Z,100996.70
2022-10-18T08:42:23.178Z,100994.19
2022-10-18T08:44:52.998Z,100992.57
2022-10-18T08:47:27.906Z,100991.65
2022-10-18T08:50:01.377Z,100993.48
2022-10-18T08:52:34.378Z,100995.49
2022-10-18T08:55:10.264Z,100999.52
2022-10-18T08:57:39.012Z,100998.52
2022-10-18T09:00:16.733Z,100992.27
2022-10-18T09:02:58.843Z,100993.33
2022-10-18T09:05:39.214Z,100992.85
2022-10-18T09:08:41.155Z,100990.37
2022-10-18T09:11:32.205Z,100982.56
2022-10-18T09:14:17.702Z,100980.52
2022-10-18T09:16:59.294Z,100982.73
2022-10-18T09:19:42.428Z,100983.54
2022-10-18T09:22:14.992Z,100981.17
2022-10-18T09:24:50.347Z,100983.28
2022-10-18T09:27:20.788Z,100980.06
2022-10-18T09:30:03.365Z,100978.42
2022-10-18T09:32:52.017Z,100980.86
2022-10-18T09:35:24.692Z,100977.41
2022-10-18T09:38:05.963Z,100978.40
2022-10-18T09:40:39.085Z,100971.64
2022-10-18T09:43:13.117Z,100964.90
2022-10-18T09:45:45.192Z,100956.85
2022-10-18T09:48:17.446Z,100952.89
2022-10-18T09:50:51.109Z,100953.55
2022-10-18T09:53:25.880Z,100953.38
2022-10-18T09:56:00.881Z,100948.11
2022-10-18T09:58:40.589Z,100944.94
2022-10-18T10:01:10.791Z,100940.33
2022-10-18T10:03:40.648Z,100937.25
2022-10-18T10:06:25.278Z,100934.46
2022-10-18T10:09:01.189Z,100930.71
2022-10-18T10:11:36.237Z,100925.23
2022-10-18T10:16:48.963Z,100913.14
2022-10-18T10:19:22.538Z,100911.36
2022-10-18T10:21:55.124Z,100909.32
2022-10-18T10:24:31.120Z,100904.70
2022-10-18T10:27:08.061Z,100903.14
2022-10-18T10:29:59.519Z,100900.43
2022-10-18T10:32:41.027Z,100894.46
2022-10-18T10:35:33.914Z,100889.45
2022-10-18T10:38:24.168Z,100885.40
2022-10-18T10:40:53.397Z,100888.56
2022-10-18T10:43:37.145Z,100882.58
2022-10-18T10:46:10.018Z,100876.53
2022-10-18T10:49:13.920Z,100876.98
2022-10-18T10:51:43.939Z,100871.43
2022-10-18T10:54:16.395Z,100869.74
2022-10-18T10:56:58.290Z,100866.92
2022-10-18T10:59:30.339Z,100863.30
2022-10-18T11:02:21.070Z,100856.66
2022-10-18T11:04:51.713Z,100855.45
2022-10-18T11:07:26.344Z,100853.84
2022-10-18T11:10:01.486Z,100850.31
2022-10-18T11:12:34.518Z,100842.71
2022-10-18T11:15:21.374Z,100838.31
2022-10-18T11:18:08.605Z,100837.15
2022-10-18T11:20:41.927Z,100829.12
2022-10-18T11:23:13.638Z,100828.52
2022-10-18T11:25:56.140Z,100823.81
2022-10-18T11:28:37.253Z,100828.27
2022-10-18T11:31:15.242Z,100828.44
2022-10-18T11:34:08.815Z,100823.64
2022-10-18T11:36:54.835Z,100822.34
2022-10-18T11:39:37.004Z,100816.80
2022-10-18T11:42:14.205Z,100811.36
2022-10-18T11:44:51.351Z,100808.67
2022-10-18T11:47:26.604Z,100803.98
2022-10-18T11:50:07.960Z,100794.50
2022-10-18T11:52:47.322Z,100786.80
2022-10-18T11:55:41.568Z,100780.41
2022-10-18T11:58:24.640Z,100778.31
2022-10-18T12:00:58.408Z,100774.30
2022-10-18T12:03:38.931Z,100767.48
2022-10-18T12:06:12.716Z,100762.34
2022-10-18T12:08:44.647Z,100756.10
2022-10-18T12:11:19.649Z,100753.72
2022-10-18T12:13:51.866Z,100751.59
2022-10-18T12:16:39.231Z,100741.02
2022-10-18T12:19:23.307Z,100742.98
2022-10-18T12:21:56.814Z,100732.15
2022-10-18T12:24:29.054Z,100729.73
2022-10-18T12:27:01.446Z,100732.66
2022-10-18T12:29:37.212Z,100727.39
2022-10-18T12:32:12.248Z,100729.20
2022-10-18T12:34:46.875Z,100723.53
2022-10-18T12:37:37.548Z,100721.11
2022-10-18T12:40:15.730Z,100716.60
2022-10-18T12:42:49.042Z,100712.96
2022-10-18T12:45:36.365Z,100711.03
2022-10-18T12:48:08.796Z,100706.41
2022-10-18T12:50:39.301Z,100708.21
2022-10-18T12:53:20.426Z,100712.00
2022-10-18T12:55:51.858Z,100702.55
2022-10-18T12:58:33.773Z,100696.41
2022-10-18T13:01:07.284Z,100693.61
2022-10-18T13:04:01.938Z,100694.31
2022-10-18T13:07:02.743Z,100680.23
2022-10-18T13:09:34.621Z,100670.16
2022-10-18T13:12:41.031Z,100667.30
2022-10-18T13:15:34.283Z,100666.11
2022-10-18T13:18:09.607Z,100662.89
2022-10-18T13:20:44.171Z,100657.08
2022-10-18T13:23:32.724Z,100651.35
2022-10-18T13:26:13.913Z,100648.55
2022-10-18T13:28:50.525Z,100647.61
2022-10-18T13:31:22.524Z,100636.20
2022-10-18T13:33:51.668Z,100633.24
2022-10-18T13:36:25.499Z,100629.48
2022-10-18T13:39:06.106Z,100634.86
2022-10-18T13:42:12.675Z,100627.54
2022-10-18T13:44:45.174Z,100627.69
2022-10-18T13:47:16.408Z,100621.73
2022-10-18T13:50:30.767Z,100617.13
2022-10-18T13:53:20.497Z,100611.70
2022-10-18T13:56:13.312Z,100602.95
2022-10-18T13:59:05.739Z,100589.80
2022-10-18T14:01:53.807Z,100589.89
2022-10-18T14:04:47.620Z,100590.71
2022-10-18T14:07:19.386Z,100588.39
2022-10-18T14:09:54.899Z,100589.33
2022-10-18T14:12:31.464Z,100588.91
2022-10-18T14:15:06.136Z,100592.41
2022-10-18T14:17:37.089Z,100590.80
2022-10-18T14:20:18.774Z,100586.46
2022-10-18T14:22:53.836Z,100578.86
2022-10-18T14:25:27.157Z,100577.73
2022-10-18T14:28:21.643Z,100575.70
2022-10-18T14:30:55.559Z,100568.30
2022-10-18T14:33:32.104Z,100564.58
2022-10-18T14:36:05.571Z,100559.00
2022-10-18T14:38:34.867Z,100547.80
2022-10-18T14:41:15.241Z,100543.25
2022-10-18T14:43:44.579Z,100542.00
2022-10-18T14:46:25.732Z,100534.45
2022-10-18T14:48:56.396Z,100522.13
2022-10-18T14:51:28.363Z,100525.17
2022-10-18T14:53:57.558Z,100524.15
2022-10-18T14:56:29.864Z,100524.29
2022-10-18T14:59:00.819Z,100525.55
2022-10-18T15:01:32.375Z,100527.16
2022-10-18T15:04:05.622Z,100525.14
2022-10-18T15:06:34.822Z,100529.90
2022-10-18T15:09:05.882Z,100526.73
2022-10-18T15:11:34.887Z,100529.08
2022-10-18T15:14:06.530Z,100530.19
2022-10-18T15:16:38.427Z,100536.64
2022-10-18T15:19:25.735Z,100541.51
2022-10-18T15:22:19.688Z,100540.05
2022-10-18T15:25:03.098Z,100548.65
2022-10-18T15:27:36.263Z,100561.27
2022-10-18T15:30:10.611Z,100571.79
2022-10-18T15:32:47.158Z,100574.14
2022-10-18T15:35:23.492Z,100589.46
2022-10-18T15:37:55.287Z,100595.68
2022-10-18T15:40:39.874Z,100608.27
2022-10-18T15:43:38.735Z,100609.28
2022-10-18T15:46:27.460Z,100620.40
2022-10-18T15:49:20.773Z,100636.16
2022-10-18T15:51:50.807Z,100641.50
2022-10-18T15:54:19.548Z,100644.73
2022-10-18T15:56:48.184Z,100644.16
2022-10-18T15:59:24.571Z,100643.58
2022-10-18T16:01:54.338Z,100650.13
2022-10-18T16:04:25.803Z,100659.80
2022-10-18T16:06:55.615Z,100663.95
2022-10-18T16:09:26.111Z,100671.80
2022-10-18T16:11:57.333Z,100676.81
2022-10-18T16:14:30.330Z,100676.73
2022-10-18T16:17:04.046Z,100674.39
2022-10-18T16:19:34.682Z,100669.15
2022-10-18T16:24:49.475Z,100680.52
2022-10-18T16:27:27.804Z,100687.08
2022-10-18T16:29:57.611Z,100685.16
2022-10-18T16:32:26.400Z,100676.38
2022-10-18T16:34:55.120Z,100691.17
2022-10-18T16:37:24.351Z,100705.73
2022-10-18T16:39:53.108Z,100708.91
2022-10-18T16:42:21.752Z,100699.99
2022-10-18T16:44:50.441Z,100708.50
2022-10-18T16:47:19.164Z,100729.28
2022-10-18T16:49:48.838Z,100744.23
2022-10-18T16:52:17.660Z,100741.44
2022-10-18T16:54:46.416Z,100731.37
2022-10-18T16:57:15.450Z,100709.67
2022-10-18T16:59:44.327Z,100712.20
2022-10-18T17:02:13.229Z,100726.70
2022-10-18T17:04:42.285Z,100730.54
2022-10-18T17:07:26.040Z,100728.75
2022-10-18T17:09:54.742Z,100739.55
2022-10-18T17:12:23.830Z,100745.86
2022-10-18T17:14:52.631Z,100757.92
2022-10-18T17:17:21.302Z,100762.36
2022-10-18T17:19:50.126Z,100767.00
2022-10-18T17:22:18.839Z,100764.07
2022-10-18T17:24:47.924Z,100768.20
2022-10-18T17:27:17.469Z,100769.78
2022-10-18T17:29:46.772Z,100773.45
2022-10-18T17:32:16.150Z,100780.49
2022-10-18T17:34:45.559Z,100783.35
2022-10-18T17:37:14.713Z,100787.23
2022-10-18T17:39:43.953Z,100776.75
2022-10-18T17:42:12.848Z,100767.11
2022-10-18T17:44:42.755Z,100774.23
2022-10-18T17:47:12.339Z,100777.59
2022-10-18T17:49:43.754Z,100773.12
2022-10-18T17:52:13.324Z,100775.28
2022-10-18T17:54:42.294Z,100769.04
2022-10-18T17:57:11.746Z,100764.58
2022-10-18T17:59:41.203Z,100763.10
2022-10-18T18:02:10.847Z,100764.18
2022-10-18T18:04:40.051Z,100760.46
2022-10-18T18:07:09.004Z,100759.04
2022-10-18T18:09:39.555Z,100752.33
2022-10-18T18:12:09.071Z,100746.78
2022-10-18T18:14:38.550Z,100741.20
2022-10-18T18:17:09.107Z,100736.55
2022-10-18T18:19:39.221Z,100732.54
2022-10-18T18:22:08.910Z,100733.21
2022-10-18T18:24:38.865Z,100737.15
2022-10-18T18:27:08.047Z,100743.91
2022-10-18T18:29:37.522Z,100746.02
2022-10-18T18:32:07.433Z,100755.84
2022-10-18T18:34:37.206Z,100760.88
2022-10-18T18:37:07.197Z,100765.45
2022-10-18T18:39:40.009Z,100779.30
2022-10-18T18:42:10.489Z,100785.85
2022-10-18T18:44:39.621Z,100786.42
2022-10-18T18:47:13.180Z,100788.61
2022-10-18T18:49:42.831Z,100788.13
2022-10-18T18:52:12.076Z,100785.27
2022-10-18T18:54:41.279Z,100783.08
2022-10-18T18:57:10.672Z,100787.97
2022-10-18T18:59:39.776Z,100784.32
2022-10-18T19:02:10.225Z,100786.20
2022-10-18T19:04:41.474Z,100790.92
2022-10-18T19:07:13.850Z,100789.56
2022-10-18T19:09:44.673Z,100789.22
2022-10-18T19:12:16.465Z,100784.65
2022-10-18T19:14:48.780Z,100785.67
2022-10-18T19:17:17.985Z,100780.20
2022-10-18T19:19:47.696Z,100781.73
2022-10-18T19:22:17.058Z,100785.80
2022-10-18T19:24:46.948Z,100791.23
2022-10-18T19:27:16.169Z,100787.36
2022-10-18T19:29:46.173Z,100781.16
2022-10-18T19:32:17.066Z,100779.52
2022-10-18T19:34:46.358Z,100771.55
2022-10-18T19:37:17.030Z,100765.31
2022-10-18T19:39:47.640Z,100766.36
2022-10-18T19:42:19.224Z,100772.20
2022-10-18T19:44:51.976Z,100780.36
2022-10-18T19:47:21.184Z,100783.27
2022-10-18T19:49:51.403Z,100782.52
2022-10-18T19:52:20.358Z,100785.23
2022-10-18T19:54:50.814Z,100785.52
2022-10-18T19:57:19.960Z,100780.44
2022-10-18T19:59:50.090Z,100786.17
2022-10-18T20:02:19.527Z,100780.02
2022-10-18T20:04:50.149Z,100784.67
2022-10-18T20:07:19.480Z,100787.08
2022-10-18T20:09:49.044Z,100785.63
2022-10-18T20:12:18.545Z,100780.69
2022-10-18T20:14:48.158Z,100780.74
2022-10-18T20:17:17.776Z,100779.00
2022-10-18T20:19:48.925Z,100770.46
2022-10-18T20:22:18.098Z,100768.98
2022-10-18T20:24:47.235Z,100768.08
2022-10-18T20:27:16.416Z,100767.54
2022-10-18T20:29:47.474Z,100773.09
2022-10-18T20:32:17.491Z,100772.01
2022-10-18T20:34:46.892Z,100775.83
2022-10-18T20:37:15.683Z,100775.27
2022-10-18T20:39:45.340Z,100782.58
2022-10-18T20:42:14.562Z,100781.08
2022-10-18T20:44:43.965Z,100786.84
2022-10-18T20:47:13.209Z,100786.32
2022-10-18T20:49:42.107Z,100783.10
2022-10-18T20:52:11.120Z,100788.69
2022-10-18T20:54:40.001Z,100787.66
2022-10-18T20:57:09.177Z,100788.62
2022-10-18T20:59:38.898Z,100793.01
2022-10-18T21:02:08.161Z,100788.55
2022-10-18T21:04:38.852Z,100788.38
2022-10-18T21:07:10.154Z,100788.85
2022-10-18T21:09:38.843Z,100787.05
2022-10-18T21:12:07.857Z,100787.77
2022-10-18T21:14:36.570Z,100790.20
2022-10-18T21:17:05.256Z,100794.70
2022-10-18T21:19:35.143Z,100797.38
2022-10-18T21:22:03.992Z,100790.23
2022-10-18T21:24:33.400Z,100778.52
2022-10-18T21:27:07.283Z,100775.53
2022-10-18T21:29:35.991Z,100774.40
2022-10-18T21:32:06.178Z,100776.00
2022-10-18T21:34:35.044Z,100784.35
2022-10-18T21:37:03.754Z,100780.10
2022-10-18T21:39:32.417Z,100785.70
2022-10-18T21:42:01.142Z,100784.36
2022-10-18T21:44:30.020Z,100787.27
2022-10-18T21:46:58.777Z,100781.21
2022-10-18T21:49:28.727Z,100777.39
2022-10-18T21:51:57.787Z,100781.50
2022-10-18T21:54:26.565Z,100774.25
2022-10-18T21:56:55.271Z,100776.80
2022-10-18T21:59:24.149Z,100776.42
2022-10-18T22:01:53.029Z,100775.84
2022-10-18T22:04:23.883Z,100768.20
2022-10-18T22:06:52.810Z,100773.61
2022-10-18T22:09:22.118Z,100769.17
2022-10-18T22:11:53.879Z,100764.25
2022-10-18T22:14:23.664Z,100766.41
2022-10-18T22:16:52.365Z,100769.10
2022-10-18T22:19:21.177Z,100762.89
2022-10-18T22:21:50.257Z,100761.30
2022-10-18T22:24:19.721Z,100760.60
2022-10-18T22:26:48.356Z,100767.50
2022-10-18T22:29:19.885Z,100767.36
2022-10-18T22:31:50.245Z,100767.30
2022-10-18T22:34:20.268Z,100762.11
2022-10-18T22:36:49.914Z,100761.02
2022-10-18T22:39:18.777Z,100762.63
2022-10-18T22:41:51.606Z,100761.82
2022-10-18T22:44:20.378Z,100761.80
2022-10-18T22:46:49.098Z,100763.34
2022-10-18T22:49:17.892Z,100761.04
2022-10-18T22:51:46.709Z,100762.16
2022-10-18T22:54:15.580Z,100759.29
2022-10-18T22:56:45.507Z,100755.95
2022-10-18T22:59:14.728Z,100748.33
2022-10-18T23:01:43.842Z,100752.65
2022-10-18T23:04:13.221Z,100756.81
2022-10-18T23:06:41.901Z,100753.38
2022-10-18T23:09:12.256Z,100756.90
2022-10-18T23:11:40.929Z,100756.86
2022-10-18T23:14:10.360Z,100756.59
2022-10-18T23:16:39.079Z,100755.71
2022-10-18T23:19:07.735Z,100757.78
2022-10-18T23:21:36.627Z,100757.64
2022-10-18T23:24:05.736Z,100762.02
2022-10-18T23:26:34.666Z,100764.16
2022-10-18T23:29:03.553Z,100765.48
2022-10-18T23:31:33.777Z,100766.30
2022-10-18T23:34:04.743Z,100770.58
2022-10-18T23:36:34.458Z,100765.16
2022-10-18T23:39:03.724Z,100763.41
2022-10-18T23:41:32.474Z,100763.94
2022-10-18T23:44:01.977Z,100762.55
2022-10-18T23:46:31.424Z,100762.48
2022-10-18T23:49:00.333Z,100764.98
2022-10-18T23:51:29.215Z,100764.16
2022-10-18T23:53:58.501Z,100759.20
2022-10-18T23:56:27.162Z,100757.83
2022-10-18T23:58:57.553Z,100764.45
